createdAt,value
2023-07-04T04:05:13.401Z,95.47
2023-07-04T04:08:15.998Z,95.47
2023-07-04T04:11:18.206Z,97.58
2023-07-04T04:14:20.606Z,100.00
2023-07-04T04:17:22.830Z,97.97
2023-07-04T04:20:26.251Z,97.40
2023-07-04T04:23:28.399Z,98.38
2023-07-04T04:26:39.108Z,100.00
2023-07-04T04:29:41.508Z,100.00
2023-07-04T04:32:46.121Z,96.19
2023-07-04T04:35:48.574Z,96.55
2023-07-04T04:38:51.020Z,95.21
2023-07-04T04:41:53.790Z,97.33
2023-07-04T04:44:56.216Z,98.53
2023-07-04T04:47:58.376Z,96.75
2023-07-04T04:51:11.810Z,100.00
2023-07-04T04:54:15.481Z,100.00
2023-07-04T04:57:18.203Z,96.29
2023-07-04T05:00:21.757Z,98.41
2023-07-04T05:03:24.686Z,100.00
2023-07-04T05:06:27.988Z,96.86
2023-07-04T05:09:30.499Z,97.14
2023-07-04T05:12:33.841Z,100.00
2023-07-04T05:15:36.299Z,100.00
2023-07-04T05:18:39.403Z,100.00
2023-07-04T05:21:42.605Z,100.00
2023-07-04T05:24:45.075Z,100.00
2023-07-04T05:27:47.629Z,100.00
2023-07-04T05:30:58.104Z,96.56
2023-07-04T05:34:00.912Z,97.49
2023-07-04T05:37:04.734Z,99.70
2023-07-04T05:40:09.499Z,99.21
2023-07-04T05:43:11.945Z,97.29
2023-07-04T05:46:17.948Z,99.71
2023-07-04T05:49:21.414Z,98.83
2023-07-04T05:52:25.148Z,100.00
2023-07-04T05:55:27.470Z,99.98
2023-07-04T05:58:30.043Z,99.07
2023-07-04T06:01:45.400Z,100.00
2023-07-04T06:04:48.115Z,99.62
2023-07-04T06:07:50.495Z,99.36
2023-07-04T06:11:06.355Z,99.17
2023-07-04T06:14:08.553Z,98.52
2023-07-04T06:17:11.005Z,99.33
2023-07-04T06:20:13.467Z,99.20
2023-07-04T06:23:16.052Z,100.00
2023-07-04T06:26:18.339Z,100.00
2023-07-04T06:29:20.783Z,100.00
2023-07-04T06:32:24.418Z,100.00
2023-07-04T06:35:26.968Z,100.00
2023-07-04T06:38:29.315Z,100.00
2023-07-04T06:41:31.919Z,100.00
2023-07-04T06:44:34.242Z,100.00
2023-07-04T06:47:36.730Z,100.00
2023-07-04T06:50:38.927Z,100.00
2023-07-04T06:53:42.549Z,100.00
2023-07-04T06:56:45.106Z,100.00
2023-07-04T06:59:47.636Z,100.00
2023-07-04T07:02:51.453Z,100.00
2023-07-04T07:05:54.149Z,100.00
2023-07-04T07:08:56.581Z,100.00
2023-07-04T07:11:58.980Z,100.00
2023-07-04T07:15:01.287Z,100.00
2023-07-04T07:18:03.869Z,100.00
2023-07-04T07:21:08.011Z,100.00
2023-07-04T07:24:10.506Z,100.00
2023-07-04T07:27:12.866Z,100.00
2023-07-04T07:30:15.864Z,100.00
2023-07-04T07:33:18.816Z,100.00
2023-07-04T07:36:28.397Z,99.31
2023-07-04T07:39:30.743Z,100.00
2023-07-04T07:42:33.892Z,100.00
2023-07-04T07:45:36.044Z,98.38
2023-07-04T07:48:38.990Z,97.99
2023-07-04T07:51:42.800Z,97.20
2023-07-04T07:54:45.403Z,99.39
2023-07-04T07:57:47.545Z,99.87
2023-07-04T08:00:50.218Z,100.00
2023-07-04T08:03:52.960Z,97.87
2023-07-04T08:06:56.263Z,99.94
2023-07-04T08:10:00.312Z,98.27
2023-07-04T08:13:02.464Z,99.05
2023-07-04T08:16:05.606Z,99.69
2023-07-04T08:19:08.145Z,100.00
2023-07-04T08:22:10.699Z,100.00
2023-07-04T08:25:13.174Z,97.64
2023-07-04T08:28:16.720Z,100.00
2023-07-04T08:31:20.319Z,99.40
2023-07-04T08:34:24.156Z,100.00
2023-07-04T08:37:26.501Z,99.43
2023-07-04T08:40:29.158Z,100.00
2023-07-04T08:43:37.749Z,100.00
2023-07-04T08:46:46.783Z,100.00
2023-07-04T08:49:55.103Z,100.00
2023-07-04T08:53:11.466Z,100.00
2023-07-04T08:56:32.723Z,100.00
2023-07-04T08:59:44.099Z,100.00
2023-07-04T09:03:06.944Z,99.37
2023-07-04T09:06:44.958Z,100.00
2023-07-04T09:10:00.255Z,100.00
2023-07-04T09:13:06.487Z,100.00
2023-07-04T09:16:21.748Z,98.62
2023-07-04T09:19:24.457Z,100.00
2023-07-04T09:22:26.686Z,100.00
2023-07-04T09:25:29.177Z,100.00
2023-07-04T09:28:36.031Z,100.00
2023-07-04T09:31:42.105Z,100.00
2023-07-04T09:34:51.689Z,100.00
2023-07-04T09:37:57.476Z,100.00
2023-07-04T09:41:00.745Z,99.90
2023-07-04T09:44:17.998Z,100.00
2023-07-04T09:47:29.846Z,100.00
2023-07-04T09:50:38.790Z,100.00
2023-07-04T09:53:41.007Z,100.00
2023-07-04T09:56:44.368Z,98.24
2023-07-04T09:59:46.556Z,99.37
2023-07-04T10:02:53.677Z,94.19
2023-07-04T10:05:57.016Z,93.07
2023-07-04T10:08:59.627Z,93.63
2023-07-04T10:12:11.944Z,90.83
2023-07-04T10:15:28.031Z,95.06
2023-07-04T10:18:34.551Z,93.76
2023-07-04T10:21:52.811Z,99.19
2023-07-04T10:24:56.962Z,96.41
2023-07-04T10:28:15.374Z,95.02
2023-07-04T10:31:22.764Z,93.57
2023-07-04T10:34:27.862Z,88.15
2023-07-04T10:37:35.594Z,88.50
2023-07-04T10:40:40.419Z,82.56
2023-07-04T10:43:47.345Z,88.26
2023-07-04T10:47:01.529Z,90.17
2023-07-04T10:50:10.775Z,87.93
2023-07-04T10:53:14.305Z,88.38
2023-07-04T10:56:25.936Z,87.66
2023-07-04T10:59:33.130Z,89.30
2023-07-04T11:02:59.018Z,83.33
2023-07-04T11:06:06.285Z,83.35
2023-07-04T11:09:15.111Z,84.27
2023-07-04T11:12:20.816Z,86.30
2023-07-04T11:15:34.992Z,84.00
2023-07-04T11:18:44.240Z,82.16
2023-07-04T11:22:11.586Z,78.46
2023-07-04T11:25:34.218Z,84.67
2023-07-04T11:28:37.159Z,81.76
2023-07-04T11:32:03.186Z,83.92
2023-07-04T11:35:11.731Z,87.68
2023-07-04T11:38:17.690Z,84.49
2023-07-04T11:41:30.587Z,79.57
2023-07-04T11:44:47.936Z,80.83
2023-07-04T11:47:54.952Z,78.59
2023-07-04T11:51:12.059Z,82.36
2023-07-04T11:54:14.965Z,76.95
2023-07-04T11:57:21.961Z,84.39
2023-07-04T12:00:31.357Z,84.49
2023-07-04T12:03:37.997Z,85.70
2023-07-04T12:06:49.734Z,83.65
2023-07-04T12:10:11.061Z,80.02
2023-07-04T12:13:20.337Z,81.55
2023-07-04T12:16:25.322Z,84.79
2023-07-04T12:19:27.796Z,84.39
2023-07-04T12:22:30.959Z,75.01
2023-07-04T12:25:45.280Z,78.04
2023-07-04T12:28:48.358Z,80.03
2023-07-04T12:32:05.779Z,77.89
2023-07-04T12:35:13.352Z,81.01
2023-07-04T12:38:16.780Z,75.94
2023-07-04T12:41:25.960Z,78.58
2023-07-04T12:44:40.367Z,82.42
2023-07-04T12:49:26.895Z,79.21
2023-07-04T12:51:14.447Z,81.29
2023-07-04T12:54:17.995Z,82.79
2023-07-04T12:57:30.123Z,83.14
2023-07-04T13:00:38.428Z,83.24
2023-07-04T13:03:44.584Z,83.30
2023-07-04T13:06:50.996Z,82.53
2023-07-04T13:09:56.852Z,81.56
2023-07-04T13:12:59.975Z,81.80
2023-07-04T13:16:12.792Z,84.47
2023-07-04T13:19:18.769Z,84.61
2023-07-04T13:22:30.092Z,84.18
2023-07-04T13:25:50.085Z,82.19
2023-07-04T13:35:33.624Z,84.08
2023-07-04T13:41:42.415Z,83.77
2023-07-04T13:47:51.569Z,84.06
2023-07-04T13:50:56.543Z,84.88
2023-07-04T13:53:59.480Z,83.11
2023-07-04T13:57:02.016Z,84.31
2023-07-04T14:00:06.178Z,83.28
2023-07-04T14:06:15.362Z,81.80
2023-07-04T14:09:17.868Z,82.10
2023-07-04T14:12:20.095Z,80.05
2023-07-04T14:16:36.823Z,82.28
2023-07-04T14:21:51.762Z,81.56
2023-07-04T14:24:54.251Z,81.46
2023-07-04T14:27:56.783Z,80.03
2023-07-04T14:30:59.182Z,79.11
2023-07-04T14:34:02.445Z,77.54
2023-07-04T14:37:04.926Z,79.79
2023-07-04T14:42:14.708Z,76.41
2023-07-04T14:43:29.968Z,76.40
2023-07-04T14:46:32.383Z,75.68
2023-07-04T14:49:36.056Z,75.97
